BAW84KV EGLL-LROP
Flight info
| Callsign | BAW84KV |
|---|---|
| Flight time | 2h 49m |
| Altitude | 35000 |
| Route | DET L6 DVR UL9 KONAN UL607 REMBA DCT LIRSU DCT ULNOK L607 MOMUK DCT GEDSO DCT PODET DCT ZINPE DCT MAVIT DCT LAMIT DCT TOSVI |
| Aircraft | A320/M-SDFGHIJ4RWY/LB1 |
Departure
| Time | 2026-05-04 18:11 |
|---|---|
| Airport | London Heathrow Airport (EGLL) |
Arrival
| Time | 2026-05-04 21:00 |
|---|---|
| Airport | Bucharest Henri Coandă International Airport (LROP) |
| Time | Latitude | Longitude | Altitude | Speed | Heading |
|---|---|---|---|---|---|
| 2026-05-04 17:30 | 51.46934 | -0.45970 | 86 ft | 0 kts | 55° |
| 2026-05-04 17:56 | 51.46934 | -0.45971 | 86 ft | 1 kts | 55° |
| 2026-05-04 17:56 | 51.46921 | -0.46002 | 88 ft | 4 kts | 56° |
| 2026-05-04 17:56 | 51.46909 | -0.46030 | 86 ft | 4 kts | 57° |
| 2026-05-04 17:57 | 51.46898 | -0.46067 | 90 ft | 4 kts | 84° |
| 2026-05-04 17:57 | 51.46894 | -0.46059 | 86 ft | 4 kts | 124° |
| 2026-05-04 17:57 | 51.46875 | -0.46037 | 88 ft | 3 kts | 145° |
| 2026-05-04 17:57 | 51.46857 | -0.46018 | 86 ft | 0 kts | 145° |
| 2026-05-04 18:00 | 51.46856 | -0.46017 | 86 ft | 1 kts | 145° |
| 2026-05-04 18:00 | 51.46841 | -0.46000 | 86 ft | 5 kts | 145° |
| 2026-05-04 18:01 | 51.46787 | -0.45983 | 86 ft | 11 kts | 187° |
| 2026-05-04 18:01 | 51.46748 | -0.46098 | 88 ft | 15 kts | 272° |
| 2026-05-04 18:01 | 51.46747 | -0.46278 | 90 ft | 17 kts | 269° |
| 2026-05-04 18:02 | 51.46748 | -0.46682 | 86 ft | 19 kts | 270° |
| 2026-05-04 18:02 | 51.46747 | -0.46905 | 88 ft | 21 kts | 270° |
| 2026-05-04 18:02 | 51.46747 | -0.47138 | 90 ft | 17 kts | 268° |
| 2026-05-04 18:02 | 51.46745 | -0.47334 | 86 ft | 18 kts | 270° |
| 2026-05-04 18:03 | 51.46745 | -0.47545 | 86 ft | 20 kts | 269° |
| 2026-05-04 18:03 | 51.46744 | -0.47746 | 86 ft | 14 kts | 270° |
| 2026-05-04 18:03 | 51.46744 | -0.47913 | 86 ft | 16 kts | 270° |
| 2026-05-04 18:03 | 51.46743 | -0.48044 | 86 ft | 9 kts | 269° |
| 2026-05-04 18:04 | 51.46743 | -0.48100 | 86 ft | 0 kts | 269° |
| 2026-05-04 18:05 | 51.46743 | -0.48107 | 86 ft | 1 kts | 269° |
| 2026-05-04 18:06 | 51.46731 | -0.48193 | 88 ft | 8 kts | 231° |
| 2026-05-04 18:06 | 51.46667 | -0.48229 | 86 ft | 11 kts | 216° |
| 2026-05-04 18:06 | 51.46653 | -0.48356 | 86 ft | 13 kts | 270° |
| 2026-05-04 18:07 | 51.46653 | -0.48504 | 86 ft | 14 kts | 270° |
| 2026-05-04 18:07 | 51.46652 | -0.48668 | 86 ft | 13 kts | 269° |
| 2026-05-04 18:07 | 51.46629 | -0.48757 | 89 ft | 7 kts | 205° |
| 2026-05-04 18:07 | 51.46597 | -0.48769 | 89 ft | 0 kts | 197° |
| 2026-05-04 18:08 | 51.46595 | -0.48770 | 86 ft | 0 kts | 197° |
| 2026-05-04 18:08 | 51.46593 | -0.48771 | 86 ft | 2 kts | 197° |
| 2026-05-04 18:09 | 51.46486 | -0.48725 | 88 ft | 17 kts | 117° |
| 2026-05-04 18:09 | 51.46479 | -0.48451 | 86 ft | 12 kts | 90° |
| 2026-05-04 18:10 | 51.46479 | -0.48174 | 88 ft | 51 kts | 90° |
| 2026-05-04 18:10 | 51.46481 | -0.47274 | 87 ft | 108 kts | 89° |
| 2026-05-04 18:10 | 51.46487 | -0.45811 | 89 ft | 152 kts | 89° |
| 2026-05-04 18:10 | 51.46489 | -0.43956 | 351 ft | 170 kts | 88° |
| 2026-05-04 18:11 | 51.46463 | -0.42056 | 951 ft | 175 kts | 95° |
| 2026-05-04 18:11 | 51.45902 | -0.40271 | 1412 ft | 191 kts | 127° |
| 2026-05-04 18:11 | 51.44987 | -0.38523 | 1543 ft | 216 kts | 123° |
| 2026-05-04 18:11 | 51.44129 | -0.36388 | 1788 ft | 240 kts | 117° |
| 2026-05-04 18:12 | 51.43466 | -0.33860 | 2284 ft | 250 kts | 98° |
| 2026-05-04 18:12 | 51.43155 | -0.31104 | 3098 ft | 253 kts | 99° |
| 2026-05-04 18:12 | 51.42786 | -0.28312 | 3904 ft | 258 kts | 101° |
| 2026-05-04 18:12 | 51.42395 | -0.25483 | 4681 ft | 263 kts | 102° |
| 2026-05-04 18:13 | 51.41997 | -0.22596 | 5421 ft | 268 kts | 102° |
| 2026-05-04 18:13 | 51.41590 | -0.19640 | 5878 ft | 274 kts | 102° |
| 2026-05-04 18:13 | 51.40770 | -0.13684 | 6004 ft | 274 kts | 102° |
| 2026-05-04 18:14 | 51.40358 | -0.10711 | 6002 ft | 274 kts | 102° |
| 2026-05-04 18:14 | 51.39944 | -0.07718 | 6487 ft | 276 kts | 102° |
| 2026-05-04 18:14 | 51.39527 | -0.04697 | 7254 ft | 279 kts | 103° |
| 2026-05-04 18:15 | 51.38674 | 0.01428 | 8715 ft | 286 kts | 103° |
| 2026-05-04 18:15 | 51.37799 | 0.07699 | 10156 ft | 295 kts | 104° |
| 2026-05-04 18:15 | 51.37331 | 0.11031 | 10377 ft | 318 kts | 104° |
| 2026-05-04 18:16 | 51.36828 | 0.14592 | 10513 ft | 340 kts | 103° |
| 2026-05-04 18:16 | 51.36293 | 0.18387 | 10720 ft | 357 kts | 103° |
| 2026-05-04 18:16 | 51.35780 | 0.22309 | 11235 ft | 363 kts | 102° |
| 2026-05-04 18:17 | 51.34829 | 0.30307 | 12450 ft | 368 kts | 101° |
| 2026-05-04 18:17 | 51.34361 | 0.34349 | 13073 ft | 371 kts | 101° |
| 2026-05-04 18:17 | 51.33396 | 0.42513 | 14260 ft | 376 kts | 101° |
| 2026-05-04 18:18 | 51.32898 | 0.46623 | 14808 ft | 378 kts | 101° |
| 2026-05-04 18:18 | 51.32394 | 0.50750 | 15331 ft | 380 kts | 101° |
| 2026-05-04 18:18 | 51.31882 | 0.54912 | 15853 ft | 383 kts | 101° |
| 2026-05-04 18:18 | 51.31362 | 0.59093 | 16364 ft | 386 kts | 102° |
| 2026-05-04 18:19 | 51.30310 | 0.67564 | 17442 ft | 391 kts | 102° |
| 2026-05-04 18:19 | 51.29776 | 0.71851 | 17973 ft | 395 kts | 102° |
| 2026-05-04 18:19 | 51.29420 | 0.74708 | 18326 ft | 397 kts | 102° |
| 2026-05-04 18:20 | 51.28695 | 0.80521 | 18982 ft | 401 kts | 102° |
| 2026-05-04 18:20 | 51.28331 | 0.83415 | 19295 ft | 403 kts | 102° |
| 2026-05-04 18:20 | 51.27775 | 0.87818 | 19784 ft | 406 kts | 103° |
| 2026-05-04 18:20 | 51.27215 | 0.92247 | 20268 ft | 408 kts | 103° |
| 2026-05-04 18:21 | 51.26651 | 0.96708 | 20715 ft | 411 kts | 103° |
| 2026-05-04 18:21 | 51.26082 | 1.01210 | 21102 ft | 415 kts | 103° |
| 2026-05-04 18:21 | 51.25509 | 1.05747 | 21504 ft | 419 kts | 103° |
| 2026-05-04 18:21 | 51.24929 | 1.10316 | 21900 ft | 421 kts | 103° |
| 2026-05-04 18:22 | 51.24343 | 1.14913 | 22297 ft | 424 kts | 103° |
| 2026-05-04 18:22 | 51.23750 | 1.19536 | 22687 ft | 427 kts | 103° |
| 2026-05-04 18:22 | 51.23149 | 1.24183 | 23063 ft | 429 kts | 103° |
| 2026-05-04 18:22 | 51.22541 | 1.28858 | 23445 ft | 431 kts | 103° |
| 2026-05-04 18:23 | 51.21929 | 1.33559 | 23771 ft | 434 kts | 103° |
| 2026-05-04 18:23 | 51.21312 | 1.38281 | 24080 ft | 436 kts | 103° |
| 2026-05-04 18:23 | 51.20691 | 1.43018 | 24388 ft | 438 kts | 103° |
| 2026-05-04 18:23 | 51.20065 | 1.47785 | 24642 ft | 441 kts | 103° |
| 2026-05-04 18:24 | 51.19435 | 1.52582 | 24915 ft | 443 kts | 103° |
| 2026-05-04 18:24 | 51.18799 | 1.57407 | 25205 ft | 445 kts | 103° |
| 2026-05-04 18:24 | 51.18158 | 1.62238 | 25512 ft | 447 kts | 103° |
| 2026-05-04 18:24 | 51.17512 | 1.67095 | 25807 ft | 449 kts | 104° |
| 2026-05-04 18:25 | 51.16859 | 1.71966 | 26103 ft | 450 kts | 104° |
| 2026-05-04 18:25 | 51.16204 | 1.76837 | 26528 ft | 449 kts | 104° |
| 2026-05-04 18:25 | 51.15552 | 1.81692 | 26974 ft | 447 kts | 104° |
| 2026-05-04 18:25 | 51.14905 | 1.86530 | 27404 ft | 446 kts | 104° |
| 2026-05-04 18:26 | 51.14254 | 1.91357 | 27830 ft | 445 kts | 104° |
| 2026-05-04 18:26 | 51.13603 | 1.96164 | 28331 ft | 443 kts | 104° |
| 2026-05-04 18:26 | 51.13038 | 2.00972 | 28786 ft | 442 kts | 98° |
| 2026-05-04 18:26 | 51.12764 | 2.05845 | 29234 ft | 441 kts | 97° |
| 2026-05-04 18:27 | 51.12505 | 2.10703 | 29675 ft | 440 kts | 97° |
| 2026-05-04 18:27 | 51.12245 | 2.15553 | 30108 ft | 439 kts | 97° |
| 2026-05-04 18:27 | 51.11985 | 2.20391 | 30485 ft | 438 kts | 97° |
| 2026-05-04 18:27 | 51.11726 | 2.25213 | 30852 ft | 437 kts | 97° |
| 2026-05-04 18:28 | 51.11464 | 2.30030 | 31212 ft | 437 kts | 97° |
| 2026-05-04 18:28 | 51.11197 | 2.34842 | 31577 ft | 436 kts | 98° |
| 2026-05-04 18:28 | 51.10931 | 2.39643 | 31934 ft | 435 kts | 98° |
| 2026-05-04 18:28 | 51.10667 | 2.44367 | 32305 ft | 435 kts | 98° |
| 2026-05-04 18:29 | 51.10396 | 2.49158 | 32666 ft | 434 kts | 98° |
| 2026-05-04 18:29 | 51.10122 | 2.53942 | 33009 ft | 434 kts | 98° |
| 2026-05-04 18:29 | 51.09845 | 2.58719 | 33354 ft | 434 kts | 98° |
| 2026-05-04 18:29 | 51.09553 | 2.63489 | 33684 ft | 433 kts | 101° |
| 2026-05-04 18:30 | 51.08119 | 2.72717 | 34238 ft | 429 kts | 109° |
| 2026-05-04 18:30 | 51.07291 | 2.77271 | 34472 ft | 429 kts | 109° |
| 2026-05-04 18:30 | 51.06459 | 2.81837 | 34709 ft | 429 kts | 109° |
| 2026-05-04 18:31 | 51.05629 | 2.86399 | 34916 ft | 430 kts | 109° |
| 2026-05-04 18:31 | 51.03949 | 2.95612 | 35001 ft | 440 kts | 109° |
| 2026-05-04 18:32 | 51.02215 | 3.05056 | 35000 ft | 450 kts | 109° |
| 2026-05-04 18:32 | 51.00454 | 3.14621 | 34992 ft | 452 kts | 109° |
| 2026-05-04 18:33 | 50.98686 | 3.24203 | 34983 ft | 452 kts | 109° |
| 2026-05-04 18:33 | 50.96906 | 3.33747 | 34980 ft | 452 kts | 110° |
| 2026-05-04 18:34 | 50.95113 | 3.43297 | 34984 ft | 452 kts | 110° |
| 2026-05-04 18:34 | 50.93318 | 3.52853 | 34986 ft | 452 kts | 110° |
| 2026-05-04 18:35 | 50.91515 | 3.62400 | 34984 ft | 452 kts | 110° |
| 2026-05-04 18:35 | 50.89696 | 3.71934 | 34984 ft | 452 kts | 110° |
| 2026-05-04 18:36 | 50.87849 | 3.81457 | 34976 ft | 452 kts | 111° |
| 2026-05-04 18:36 | 50.85994 | 3.90958 | 34982 ft | 452 kts | 111° |
| 2026-05-04 18:37 | 50.84145 | 4.00469 | 34986 ft | 452 kts | 111° |
| 2026-05-04 18:37 | 50.82287 | 4.09964 | 34988 ft | 452 kts | 111° |
| 2026-05-04 18:38 | 50.80417 | 4.19449 | 34994 ft | 452 kts | 111° |
| 2026-05-04 18:38 | 50.78537 | 4.28934 | 34989 ft | 452 kts | 111° |
| 2026-05-04 18:39 | 50.76650 | 4.38417 | 34989 ft | 452 kts | 111° |
| 2026-05-04 18:39 | 50.74759 | 4.47900 | 34990 ft | 452 kts | 111° |
| 2026-05-04 18:40 | 50.72873 | 4.57287 | 34988 ft | 452 kts | 111° |
| 2026-05-04 18:40 | 50.70985 | 4.66768 | 34981 ft | 453 kts | 111° |
| 2026-05-04 18:41 | 50.69151 | 4.76276 | 34977 ft | 453 kts | 111° |
| 2026-05-04 18:41 | 50.67320 | 4.85790 | 34981 ft | 454 kts | 111° |
| 2026-05-04 18:42 | 50.65138 | 4.95047 | 34987 ft | 448 kts | 120° |
| 2026-05-04 18:42 | 50.62458 | 5.03904 | 34988 ft | 449 kts | 120° |
| 2026-05-04 18:43 | 50.59779 | 5.12799 | 34968 ft | 449 kts | 120° |
| 2026-05-04 18:43 | 50.57105 | 5.21675 | 34978 ft | 449 kts | 121° |
| 2026-05-04 18:44 | 50.54415 | 5.30552 | 34984 ft | 450 kts | 121° |
| 2026-05-04 18:44 | 50.51715 | 5.39416 | 34991 ft | 450 kts | 121° |
| 2026-05-04 18:45 | 50.49008 | 5.48263 | 34993 ft | 450 kts | 121° |
| 2026-05-04 18:45 | 50.46293 | 5.57109 | 34980 ft | 449 kts | 121° |
| 2026-05-04 18:46 | 50.43571 | 5.65946 | 34984 ft | 450 kts | 121° |
| 2026-05-04 18:46 | 50.40846 | 5.74777 | 34985 ft | 450 kts | 121° |
| 2026-05-04 18:47 | 50.38106 | 5.83596 | 34994 ft | 450 kts | 121° |
| 2026-05-04 18:47 | 50.35360 | 5.92409 | 34996 ft | 450 kts | 121° |
| 2026-05-04 18:48 | 50.32608 | 6.01217 | 34976 ft | 450 kts | 122° |
| 2026-05-04 18:48 | 50.29850 | 6.10009 | 34985 ft | 450 kts | 122° |
| 2026-05-04 18:49 | 50.27102 | 6.18721 | 34989 ft | 450 kts | 122° |
| 2026-05-04 18:49 | 50.24335 | 6.27489 | 34992 ft | 450 kts | 122° |
| 2026-05-04 18:50 | 50.21562 | 6.36245 | 34992 ft | 450 kts | 122° |
| 2026-05-04 18:50 | 50.18861 | 6.45047 | 34968 ft | 453 kts | 116° |
| 2026-05-04 18:51 | 50.17166 | 6.54606 | 34982 ft | 459 kts | 109° |
| 2026-05-04 18:51 | 50.15593 | 6.64251 | 34992 ft | 459 kts | 110° |
| 2026-05-04 18:52 | 50.13999 | 6.73890 | 34995 ft | 459 kts | 110° |
| 2026-05-04 18:52 | 50.12403 | 6.83534 | 35016 ft | 459 kts | 110° |
| 2026-05-04 18:53 | 50.10813 | 6.93088 | 35007 ft | 459 kts | 110° |
| 2026-05-04 18:53 | 50.09201 | 7.02696 | 35017 ft | 458 kts | 110° |
| 2026-05-04 18:54 | 50.07587 | 7.12297 | 35020 ft | 458 kts | 110° |
| 2026-05-04 18:54 | 50.05970 | 7.21890 | 35020 ft | 458 kts | 110° |
| 2026-05-04 18:55 | 50.04345 | 7.31478 | 35008 ft | 458 kts | 110° |
| 2026-05-04 18:55 | 50.01889 | 7.45806 | 35016 ft | 458 kts | 110° |
| 2026-05-04 18:56 | 50.00233 | 7.55377 | 35012 ft | 458 kts | 110° |
| 2026-05-04 18:56 | 49.98578 | 7.64922 | 35009 ft | 457 kts | 110° |
| 2026-05-04 18:57 | 49.96918 | 7.74457 | 35004 ft | 457 kts | 110° |
| 2026-05-04 18:57 | 49.95247 | 7.83992 | 34984 ft | 458 kts | 110° |
| 2026-05-04 18:58 | 49.93562 | 7.93531 | 34980 ft | 458 kts | 110° |
| 2026-05-04 18:58 | 49.91871 | 8.03056 | 34987 ft | 458 kts | 110° |
| 2026-05-04 18:59 | 49.90168 | 8.12593 | 34982 ft | 458 kts | 110° |
| 2026-05-04 18:59 | 49.88469 | 8.22118 | 34965 ft | 459 kts | 110° |
| 2026-05-04 19:00 | 49.86759 | 8.31659 | 34973 ft | 459 kts | 110° |
| 2026-05-04 19:00 | 49.84434 | 8.40744 | 34978 ft | 449 kts | 126° |
| 2026-05-04 19:01 | 49.80577 | 8.48173 | 34984 ft | 439 kts | 141° |
| 2026-05-04 19:01 | 49.76152 | 8.54599 | 34989 ft | 439 kts | 141° |
| 2026-05-04 19:02 | 49.71220 | 8.60002 | 34993 ft | 428 kts | 159° |
| 2026-05-04 19:02 | 49.65629 | 8.62630 | 34999 ft | 420 kts | 173° |
| 2026-05-04 19:03 | 49.59864 | 8.64211 | 34997 ft | 421 kts | 173° |
| 2026-05-04 19:03 | 49.54097 | 8.65815 | 35005 ft | 421 kts | 173° |
| 2026-05-04 19:04 | 49.48329 | 8.67434 | 35009 ft | 422 kts | 171° |
| 2026-05-04 19:04 | 49.42772 | 8.70521 | 35007 ft | 428 kts | 160° |
| 2026-05-04 19:05 | 49.37345 | 8.74311 | 34999 ft | 428 kts | 160° |
| 2026-05-04 19:05 | 49.31918 | 8.78079 | 34998 ft | 429 kts | 160° |
| 2026-05-04 19:06 | 49.26481 | 8.81839 | 34992 ft | 429 kts | 160° |
| 2026-05-04 19:06 | 49.21042 | 8.85596 | 34988 ft | 429 kts | 160° |
| 2026-05-04 19:07 | 49.15605 | 8.89350 | 34969 ft | 429 kts | 159° |
| 2026-05-04 19:07 | 49.10200 | 8.93070 | 34978 ft | 429 kts | 159° |
| 2026-05-04 19:08 | 49.04751 | 8.96808 | 34991 ft | 429 kts | 159° |
| 2026-05-04 19:08 | 48.99297 | 9.00535 | 34994 ft | 430 kts | 159° |
| 2026-05-04 19:09 | 48.93840 | 9.04256 | 34988 ft | 430 kts | 159° |
| 2026-05-04 19:09 | 48.88381 | 9.07977 | 34987 ft | 430 kts | 159° |
| 2026-05-04 19:10 | 48.84727 | 9.10461 | 34989 ft | 430 kts | 159° |
| 2026-05-04 19:10 | 48.78373 | 9.14768 | 34995 ft | 430 kts | 159° |
| 2026-05-04 19:11 | 48.72907 | 9.18464 | 34974 ft | 430 kts | 159° |
| 2026-05-04 19:11 | 48.67434 | 9.22147 | 34970 ft | 431 kts | 159° |
| 2026-05-04 19:12 | 48.59182 | 9.27583 | 34978 ft | 431 kts | 162° |
| 2026-05-04 19:13 | 48.53578 | 9.30731 | 34983 ft | 430 kts | 163° |
| 2026-05-04 19:13 | 48.47938 | 9.33744 | 34990 ft | 430 kts | 163° |
| 2026-05-04 19:14 | 48.42306 | 9.36819 | 34991 ft | 430 kts | 163° |
| 2026-05-04 19:14 | 48.36694 | 9.39947 | 34992 ft | 430 kts | 163° |
| 2026-05-04 19:15 | 48.31080 | 9.43072 | 34991 ft | 430 kts | 163° |
| 2026-05-04 19:15 | 48.25572 | 9.46621 | 34955 ft | 435 kts | 152° |
| 2026-05-04 19:16 | 48.20791 | 9.52282 | 34954 ft | 440 kts | 142° |
| 2026-05-04 19:16 | 48.16161 | 9.58298 | 34950 ft | 441 kts | 143° |
| 2026-05-04 19:17 | 48.11513 | 9.64291 | 34949 ft | 441 kts | 143° |
| 2026-05-04 19:17 | 48.06856 | 9.70287 | 34953 ft | 442 kts | 143° |
| 2026-05-04 19:18 | 48.02197 | 9.76269 | 34946 ft | 442 kts | 143° |
| 2026-05-04 19:18 | 47.97532 | 9.82248 | 34938 ft | 442 kts | 142° |
| 2026-05-04 19:19 | 47.92863 | 9.88220 | 34962 ft | 442 kts | 143° |
| 2026-05-04 19:19 | 47.88197 | 9.94181 | 34970 ft | 442 kts | 143° |
| 2026-05-04 19:20 | 47.83761 | 10.00535 | 34975 ft | 447 kts | 131° |
| 2026-05-04 19:20 | 47.80445 | 10.08418 | 34979 ft | 450 kts | 123° |
| 2026-05-04 19:21 | 47.77291 | 10.16468 | 34962 ft | 450 kts | 123° |
| 2026-05-04 19:21 | 47.74123 | 10.24497 | 34973 ft | 450 kts | 123° |
| 2026-05-04 19:22 | 47.70948 | 10.32523 | 34981 ft | 451 kts | 123° |
| 2026-05-04 19:22 | 47.67776 | 10.40522 | 34984 ft | 451 kts | 123° |
| 2026-05-04 19:23 | 47.64612 | 10.48503 | 34991 ft | 451 kts | 123° |
| 2026-05-04 19:23 | 47.61409 | 10.56546 | 34979 ft | 451 kts | 123° |
| 2026-05-04 19:24 | 47.58233 | 10.64482 | 34983 ft | 451 kts | 123° |
| 2026-05-04 19:24 | 47.55037 | 10.72472 | 34987 ft | 450 kts | 123° |
| 2026-05-04 19:25 | 47.51838 | 10.80443 | 34993 ft | 450 kts | 123° |
| 2026-05-04 19:25 | 47.48631 | 10.88401 | 34986 ft | 451 kts | 123° |
| 2026-05-04 19:26 | 47.45404 | 10.96359 | 34968 ft | 451 kts | 123° |
| 2026-05-04 19:26 | 47.42171 | 11.04320 | 34965 ft | 452 kts | 123° |
| 2026-05-04 19:27 | 47.38928 | 11.12284 | 34972 ft | 453 kts | 123° |
| 2026-05-04 19:27 | 47.35682 | 11.20249 | 34961 ft | 453 kts | 123° |
| 2026-05-04 19:28 | 47.32423 | 11.28212 | 34958 ft | 453 kts | 124° |
| 2026-05-04 19:28 | 47.29160 | 11.36156 | 34962 ft | 453 kts | 124° |
| 2026-05-04 19:29 | 47.25889 | 11.44098 | 34968 ft | 454 kts | 124° |
| 2026-05-04 19:29 | 47.22612 | 11.52030 | 34974 ft | 454 kts | 124° |
| 2026-05-04 19:30 | 47.19327 | 11.59972 | 34972 ft | 455 kts | 124° |
| 2026-05-04 19:30 | 47.16055 | 11.67858 | 34974 ft | 456 kts | 124° |
| 2026-05-04 19:31 | 47.12743 | 11.75802 | 34982 ft | 456 kts | 124° |
| 2026-05-04 19:31 | 47.09418 | 11.83747 | 35006 ft | 457 kts | 124° |
| 2026-05-04 19:32 | 47.06874 | 11.92334 | 35030 ft | 463 kts | 110° |
| 2026-05-04 19:32 | 47.04890 | 12.01313 | 35020 ft | 462 kts | 111° |
| 2026-05-04 19:33 | 47.02881 | 12.10268 | 35036 ft | 463 kts | 111° |
| 2026-05-04 19:33 | 47.00855 | 12.19229 | 35069 ft | 463 kts | 110° |
| 2026-05-04 19:34 | 46.98832 | 12.28190 | 35073 ft | 463 kts | 111° |
| 2026-05-04 19:34 | 46.96807 | 12.37145 | 35071 ft | 463 kts | 110° |
| 2026-05-04 19:35 | 46.94780 | 12.46085 | 35088 ft | 462 kts | 110° |
| 2026-05-04 19:35 | 46.92741 | 12.55003 | 35092 ft | 462 kts | 110° |
| 2026-05-04 19:36 | 46.90694 | 12.63901 | 35087 ft | 461 kts | 110° |
| 2026-05-04 19:36 | 46.88642 | 12.72783 | 35080 ft | 461 kts | 110° |
| 2026-05-04 19:37 | 46.86589 | 12.81650 | 35063 ft | 461 kts | 110° |
| 2026-05-04 19:37 | 46.84529 | 12.90520 | 35061 ft | 461 kts | 110° |
| 2026-05-04 19:38 | 46.82460 | 12.99393 | 35070 ft | 462 kts | 111° |
| 2026-05-04 19:38 | 46.80382 | 13.08265 | 35074 ft | 462 kts | 111° |
| 2026-05-04 19:39 | 46.78295 | 13.17137 | 35072 ft | 462 kts | 111° |
| 2026-05-04 19:39 | 46.76200 | 13.25993 | 35081 ft | 462 kts | 111° |
| 2026-05-04 19:40 | 46.74106 | 13.34843 | 35082 ft | 462 kts | 111° |
| 2026-05-04 19:40 | 46.72005 | 13.43675 | 35078 ft | 461 kts | 111° |
| 2026-05-04 19:41 | 46.69894 | 13.52507 | 35067 ft | 461 kts | 111° |
| 2026-05-04 19:41 | 46.67786 | 13.61331 | 35061 ft | 461 kts | 111° |
| 2026-05-04 19:42 | 46.65664 | 13.70142 | 35066 ft | 461 kts | 111° |
| 2026-05-04 19:42 | 46.63530 | 13.78939 | 35065 ft | 461 kts | 111° |
| 2026-05-04 19:43 | 46.61395 | 13.87726 | 35062 ft | 460 kts | 111° |
| 2026-05-04 19:43 | 46.59257 | 13.96495 | 35059 ft | 460 kts | 111° |
| 2026-05-04 19:44 | 46.57124 | 14.05200 | 35057 ft | 460 kts | 111° |
| 2026-05-04 19:44 | 46.54959 | 14.14008 | 35061 ft | 460 kts | 111° |
| 2026-05-04 19:45 | 46.52815 | 14.22693 | 35067 ft | 460 kts | 111° |
| 2026-05-04 19:45 | 46.50658 | 14.31420 | 35050 ft | 460 kts | 111° |
| 2026-05-04 19:46 | 46.48490 | 14.40153 | 35045 ft | 460 kts | 111° |
| 2026-05-04 19:46 | 46.46311 | 14.48897 | 35047 ft | 460 kts | 111° |
| 2026-05-04 19:47 | 46.44115 | 14.57629 | 35045 ft | 461 kts | 111° |
| 2026-05-04 19:47 | 46.41920 | 14.66342 | 35045 ft | 461 kts | 111° |
| 2026-05-04 19:48 | 46.39716 | 14.75090 | 35053 ft | 463 kts | 112° |
| 2026-05-04 19:48 | 46.37504 | 14.83843 | 35051 ft | 463 kts | 112° |
| 2026-05-04 19:49 | 46.35270 | 14.92613 | 35035 ft | 464 kts | 112° |
| 2026-05-04 19:49 | 46.33036 | 15.01369 | 35047 ft | 464 kts | 111° |
| 2026-05-04 19:50 | 46.30802 | 15.10108 | 35055 ft | 463 kts | 111° |
| 2026-05-04 19:50 | 46.28557 | 15.18820 | 35069 ft | 462 kts | 111° |
| 2026-05-04 19:51 | 46.26309 | 15.27514 | 35060 ft | 462 kts | 111° |
| 2026-05-04 19:51 | 46.24055 | 15.36199 | 35049 ft | 461 kts | 111° |
| 2026-05-04 19:52 | 46.21797 | 15.44871 | 35048 ft | 461 kts | 111° |
| 2026-05-04 19:52 | 46.19528 | 15.53536 | 35044 ft | 461 kts | 111° |
| 2026-05-04 19:53 | 46.17259 | 15.62201 | 35048 ft | 461 kts | 111° |
| 2026-05-04 19:53 | 46.14959 | 15.70843 | 35044 ft | 461 kts | 112° |
| 2026-05-04 19:54 | 46.12607 | 15.79452 | 35041 ft | 462 kts | 112° |
| 2026-05-04 19:54 | 46.10646 | 15.86603 | 35044 ft | 462 kts | 112° |
| 2026-05-04 19:55 | 46.07906 | 15.96599 | 35040 ft | 462 kts | 112° |
| 2026-05-04 19:55 | 46.05548 | 16.05201 | 35045 ft | 462 kts | 112° |
| 2026-05-04 19:56 | 46.03588 | 16.12347 | 35045 ft | 461 kts | 112° |
| 2026-05-04 19:56 | 46.01207 | 16.20988 | 35043 ft | 462 kts | 112° |
| 2026-05-04 19:57 | 45.98841 | 16.29512 | 35042 ft | 462 kts | 112° |
| 2026-05-04 19:57 | 45.96449 | 16.38085 | 35042 ft | 462 kts | 112° |
| 2026-05-04 19:58 | 45.94055 | 16.46662 | 35049 ft | 462 kts | 112° |
| 2026-05-04 19:58 | 45.91659 | 16.55225 | 35043 ft | 462 kts | 112° |
| 2026-05-04 19:59 | 45.89261 | 16.63778 | 35042 ft | 462 kts | 112° |
| 2026-05-04 19:59 | 45.86857 | 16.72326 | 35041 ft | 462 kts | 112° |
| 2026-05-04 20:00 | 45.84440 | 16.80853 | 35037 ft | 462 kts | 111° |
| 2026-05-04 20:00 | 45.82014 | 16.89377 | 35030 ft | 462 kts | 111° |
| 2026-05-04 20:01 | 45.79585 | 16.97905 | 35032 ft | 462 kts | 111° |
| 2026-05-04 20:01 | 45.77146 | 17.06426 | 35032 ft | 462 kts | 112° |
| 2026-05-04 20:02 | 45.74882 | 17.15027 | 35031 ft | 461 kts | 103° |
| 2026-05-04 20:02 | 45.73817 | 17.24061 | 35028 ft | 460 kts | 97° |
| 2026-05-04 20:03 | 45.72882 | 17.33131 | 35037 ft | 461 kts | 97° |
| 2026-05-04 20:03 | 45.71926 | 17.42201 | 35037 ft | 461 kts | 97° |
| 2026-05-04 20:04 | 45.70952 | 17.51270 | 35042 ft | 461 kts | 97° |
| 2026-05-04 20:04 | 45.69980 | 17.60335 | 35037 ft | 461 kts | 97° |
| 2026-05-04 20:05 | 45.69009 | 17.69395 | 35041 ft | 461 kts | 97° |
| 2026-05-04 20:05 | 45.68038 | 17.78453 | 35034 ft | 461 kts | 97° |
| 2026-05-04 20:06 | 45.67052 | 17.87508 | 35041 ft | 461 kts | 97° |
| 2026-05-04 20:06 | 45.66054 | 17.96560 | 35050 ft | 461 kts | 97° |
| 2026-05-04 20:07 | 45.65050 | 18.05633 | 35053 ft | 462 kts | 97° |
| 2026-05-04 20:07 | 45.64041 | 18.14632 | 35054 ft | 462 kts | 97° |
| 2026-05-04 20:08 | 45.63025 | 18.23694 | 35049 ft | 462 kts | 97° |
| 2026-05-04 20:08 | 45.62002 | 18.32760 | 35057 ft | 462 kts | 97° |
| 2026-05-04 20:09 | 45.60970 | 18.41823 | 35044 ft | 462 kts | 97° |
| 2026-05-04 20:09 | 45.59923 | 18.50883 | 35061 ft | 462 kts | 98° |
| 2026-05-04 20:10 | 45.58871 | 18.59935 | 35068 ft | 462 kts | 98° |
| 2026-05-04 20:10 | 45.57817 | 18.68997 | 35067 ft | 462 kts | 97° |
| 2026-05-04 20:11 | 45.56757 | 18.78038 | 35078 ft | 462 kts | 98° |
| 2026-05-04 20:11 | 45.55688 | 18.87068 | 35074 ft | 462 kts | 98° |
| 2026-05-04 20:12 | 45.54610 | 18.96097 | 35071 ft | 462 kts | 98° |
| 2026-05-04 20:12 | 45.53532 | 19.05112 | 35078 ft | 462 kts | 98° |
| 2026-05-04 20:13 | 45.52444 | 19.14135 | 35072 ft | 461 kts | 98° |
| 2026-05-04 20:13 | 45.51352 | 19.23143 | 35066 ft | 461 kts | 98° |
| 2026-05-04 20:14 | 45.50253 | 19.32138 | 35077 ft | 461 kts | 98° |
| 2026-05-04 20:14 | 45.49141 | 19.41126 | 35078 ft | 460 kts | 98° |
| 2026-05-04 20:15 | 45.48028 | 19.50106 | 35078 ft | 460 kts | 98° |
| 2026-05-04 20:15 | 45.46907 | 19.59077 | 35075 ft | 460 kts | 98° |
| 2026-05-04 20:16 | 45.45778 | 19.68039 | 35081 ft | 460 kts | 98° |
| 2026-05-04 20:16 | 45.44651 | 19.76942 | 35081 ft | 459 kts | 98° |
| 2026-05-04 20:17 | 45.43516 | 19.85879 | 35090 ft | 458 kts | 98° |
| 2026-05-04 20:17 | 45.42376 | 19.94803 | 35093 ft | 458 kts | 98° |
| 2026-05-04 20:18 | 45.41218 | 20.03720 | 35090 ft | 458 kts | 98° |
| 2026-05-04 20:18 | 45.40059 | 20.12623 | 35089 ft | 458 kts | 98° |
| 2026-05-04 20:19 | 45.38894 | 20.21519 | 35102 ft | 457 kts | 98° |
| 2026-05-04 20:19 | 45.37724 | 20.30399 | 35097 ft | 456 kts | 98° |
| 2026-05-04 20:20 | 45.36551 | 20.39273 | 35095 ft | 456 kts | 98° |
| 2026-05-04 20:20 | 45.35376 | 20.48128 | 35093 ft | 456 kts | 98° |
| 2026-05-04 20:21 | 45.34184 | 20.56983 | 35115 ft | 456 kts | 98° |
| 2026-05-04 20:21 | 45.32390 | 20.70238 | 35108 ft | 455 kts | 98° |
| 2026-05-04 20:22 | 45.31196 | 20.79059 | 35101 ft | 455 kts | 98° |
| 2026-05-04 20:22 | 45.29986 | 20.87874 | 35102 ft | 455 kts | 98° |
| 2026-05-04 20:23 | 45.28770 | 20.96688 | 35111 ft | 455 kts | 97° |
| 2026-05-04 20:23 | 45.27552 | 21.05494 | 35109 ft | 454 kts | 98° |
| 2026-05-04 20:24 | 45.26325 | 21.14288 | 35107 ft | 454 kts | 98° |
| 2026-05-04 20:24 | 45.25090 | 21.23075 | 35105 ft | 454 kts | 98° |
| 2026-05-04 20:25 | 45.23947 | 21.31823 | 35108 ft | 452 kts | 92° |
| 2026-05-04 20:25 | 45.23437 | 21.40693 | 35108 ft | 451 kts | 91° |
| 2026-05-04 20:26 | 45.22923 | 21.49563 | 35107 ft | 451 kts | 91° |
| 2026-05-04 20:26 | 45.22406 | 21.58436 | 35116 ft | 451 kts | 91° |
| 2026-05-04 20:27 | 45.21879 | 21.67309 | 35120 ft | 451 kts | 91° |
| 2026-05-04 20:27 | 45.21341 | 21.76168 | 35125 ft | 451 kts | 91° |
| 2026-05-04 20:28 | 45.20800 | 21.85035 | 35122 ft | 451 kts | 92° |
| 2026-05-04 20:28 | 45.20247 | 21.93905 | 35128 ft | 452 kts | 92° |
| 2026-05-04 20:29 | 45.19695 | 22.02769 | 35129 ft | 452 kts | 92° |
| 2026-05-04 20:29 | 45.19129 | 22.11638 | 35143 ft | 452 kts | 92° |
| 2026-05-04 20:30 | 45.18556 | 22.20500 | 35149 ft | 452 kts | 92° |
| 2026-05-04 20:30 | 45.17982 | 22.29365 | 35148 ft | 452 kts | 92° |
| 2026-05-04 20:31 | 45.17401 | 22.38225 | 35146 ft | 452 kts | 92° |
| 2026-05-04 20:31 | 45.16808 | 22.47033 | 35138 ft | 452 kts | 92° |
| 2026-05-04 20:32 | 45.16212 | 22.55895 | 35143 ft | 452 kts | 92° |
| 2026-05-04 20:32 | 45.15617 | 22.64766 | 35140 ft | 452 kts | 92° |
| 2026-05-04 20:33 | 45.15009 | 22.73631 | 35127 ft | 452 kts | 92° |
| 2026-05-04 20:33 | 45.14385 | 22.82501 | 35128 ft | 452 kts | 93° |
| 2026-05-04 20:34 | 45.13755 | 22.91371 | 35130 ft | 453 kts | 92° |
| 2026-05-04 20:34 | 45.13121 | 23.00244 | 35128 ft | 453 kts | 93° |
| 2026-05-04 20:35 | 45.12476 | 23.09117 | 35115 ft | 453 kts | 93° |
| 2026-05-04 20:35 | 45.11830 | 23.17986 | 35115 ft | 453 kts | 93° |
| 2026-05-04 20:36 | 45.11178 | 23.26853 | 35114 ft | 453 kts | 93° |
| 2026-05-04 20:36 | 45.10509 | 23.35722 | 35109 ft | 453 kts | 95° |
| 2026-05-04 20:37 | 45.09070 | 23.44450 | 35119 ft | 456 kts | 102° |
| 2026-05-04 20:37 | 45.07432 | 23.53130 | 35119 ft | 457 kts | 102° |
| 2026-05-04 20:38 | 45.05811 | 23.61756 | 35125 ft | 457 kts | 102° |
| 2026-05-04 20:38 | 45.04997 | 23.66095 | 34893 ft | 456 kts | 102° |
| 2026-05-04 20:38 | 45.04179 | 23.70419 | 34654 ft | 455 kts | 102° |
| 2026-05-04 20:39 | 45.03357 | 23.74735 | 34413 ft | 455 kts | 102° |
| 2026-05-04 20:39 | 45.02532 | 23.79054 | 34173 ft | 455 kts | 102° |
| 2026-05-04 20:39 | 45.01706 | 23.83367 | 33914 ft | 455 kts | 102° |
| 2026-05-04 20:39 | 45.00876 | 23.87683 | 33646 ft | 455 kts | 102° |
| 2026-05-04 20:40 | 45.00047 | 23.91993 | 33313 ft | 455 kts | 102° |
| 2026-05-04 20:40 | 44.99210 | 23.96339 | 32337 ft | 460 kts | 102° |
| 2026-05-04 20:40 | 44.98369 | 24.00714 | 31406 ft | 464 kts | 103° |
| 2026-05-04 20:40 | 44.97520 | 24.05112 | 30538 ft | 466 kts | 103° |
| 2026-05-04 20:41 | 44.96663 | 24.09548 | 29404 ft | 471 kts | 104° |
| 2026-05-04 20:41 | 44.95795 | 24.14025 | 28310 ft | 473 kts | 104° |
| 2026-05-04 20:41 | 44.94926 | 24.18480 | 27666 ft | 466 kts | 104° |
| 2026-05-04 20:41 | 44.94070 | 24.22855 | 26982 ft | 461 kts | 104° |
| 2026-05-04 20:42 | 44.93220 | 24.27188 | 26292 ft | 456 kts | 104° |
| 2026-05-04 20:42 | 44.92376 | 24.31477 | 25605 ft | 451 kts | 104° |
| 2026-05-04 20:42 | 44.91539 | 24.35716 | 24937 ft | 447 kts | 103° |
| 2026-05-04 20:42 | 44.90706 | 24.39920 | 24263 ft | 443 kts | 103° |
| 2026-05-04 20:43 | 44.89879 | 24.44088 | 23589 ft | 439 kts | 103° |
| 2026-05-04 20:43 | 44.89061 | 24.48216 | 22873 ft | 434 kts | 103° |
| 2026-05-04 20:43 | 44.88256 | 24.52286 | 22230 ft | 428 kts | 103° |
| 2026-05-04 20:43 | 44.87462 | 24.56294 | 21595 ft | 422 kts | 103° |
| 2026-05-04 20:44 | 44.86930 | 24.58971 | 21184 ft | 418 kts | 103° |
| 2026-05-04 20:44 | 44.86162 | 24.62838 | 20592 ft | 412 kts | 103° |
| 2026-05-04 20:44 | 44.85381 | 24.66757 | 20015 ft | 408 kts | 103° |
| 2026-05-04 20:44 | 44.84618 | 24.70577 | 19464 ft | 404 kts | 103° |
| 2026-05-04 20:45 | 44.83869 | 24.74324 | 18932 ft | 400 kts | 103° |
| 2026-05-04 20:45 | 44.83112 | 24.78093 | 18386 ft | 397 kts | 103° |
| 2026-05-04 20:45 | 44.82363 | 24.81820 | 17813 ft | 394 kts | 103° |
| 2026-05-04 20:45 | 44.81620 | 24.85508 | 17281 ft | 390 kts | 103° |
| 2026-05-04 20:46 | 44.80883 | 24.89160 | 16750 ft | 386 kts | 103° |
| 2026-05-04 20:46 | 44.80152 | 24.92778 | 16199 ft | 382 kts | 103° |
| 2026-05-04 20:46 | 44.79427 | 24.96356 | 15662 ft | 378 kts | 103° |
| 2026-05-04 20:46 | 44.78705 | 24.99905 | 15098 ft | 375 kts | 103° |
| 2026-05-04 20:47 | 44.77990 | 25.03414 | 14575 ft | 371 kts | 103° |
| 2026-05-04 20:47 | 44.77321 | 25.06864 | 14352 ft | 358 kts | 101° |
| 2026-05-04 20:47 | 44.76693 | 25.10178 | 14219 ft | 343 kts | 101° |
| 2026-05-04 20:47 | 44.76085 | 25.13354 | 14098 ft | 329 kts | 101° |
| 2026-05-04 20:48 | 44.75496 | 25.16397 | 13981 ft | 317 kts | 101° |
| 2026-05-04 20:48 | 44.74922 | 25.19331 | 13852 ft | 305 kts | 101° |
| 2026-05-04 20:48 | 44.74365 | 25.22155 | 13720 ft | 295 kts | 101° |
| 2026-05-04 20:48 | 44.73820 | 25.24885 | 13587 ft | 285 kts | 101° |
| 2026-05-04 20:49 | 44.73287 | 25.27528 | 13447 ft | 276 kts | 101° |
| 2026-05-04 20:49 | 44.72766 | 25.30083 | 13315 ft | 268 kts | 101° |
| 2026-05-04 20:49 | 44.72262 | 25.32526 | 13183 ft | 259 kts | 101° |
| 2026-05-04 20:49 | 44.71762 | 25.34922 | 13046 ft | 251 kts | 102° |
| 2026-05-04 20:50 | 44.71028 | 25.37121 | 12857 ft | 248 kts | 118° |
| 2026-05-04 20:50 | 44.70025 | 25.39093 | 12383 ft | 248 kts | 121° |
| 2026-05-04 20:50 | 44.68979 | 25.41024 | 11895 ft | 249 kts | 121° |
| 2026-05-04 20:50 | 44.67915 | 25.42945 | 11402 ft | 249 kts | 121° |
| 2026-05-04 20:51 | 44.66844 | 25.44870 | 10979 ft | 251 kts | 122° |
| 2026-05-04 20:51 | 44.65778 | 25.46799 | 10704 ft | 250 kts | 121° |
| 2026-05-04 20:51 | 44.64713 | 25.48726 | 10416 ft | 250 kts | 121° |
| 2026-05-04 20:51 | 44.63649 | 25.50648 | 10117 ft | 248 kts | 121° |
| 2026-05-04 20:52 | 44.62585 | 25.52566 | 9699 ft | 250 kts | 121° |
| 2026-05-04 20:52 | 44.61522 | 25.54485 | 9410 ft | 248 kts | 121° |
| 2026-05-04 20:52 | 44.60715 | 25.56545 | 9027 ft | 235 kts | 99° |
| 2026-05-04 20:52 | 44.60337 | 25.58749 | 8529 ft | 232 kts | 96° |
| 2026-05-04 20:53 | 44.59980 | 25.60951 | 8073 ft | 231 kts | 96° |
| 2026-05-04 20:53 | 44.59627 | 25.63143 | 7626 ft | 229 kts | 96° |
| 2026-05-04 20:53 | 44.59275 | 25.65314 | 7184 ft | 228 kts | 96° |
| 2026-05-04 20:53 | 44.58923 | 25.67469 | 6756 ft | 226 kts | 97° |
| 2026-05-04 20:54 | 44.58573 | 25.69609 | 6319 ft | 224 kts | 97° |
| 2026-05-04 20:54 | 44.58226 | 25.71728 | 5898 ft | 222 kts | 97° |
| 2026-05-04 20:54 | 44.57882 | 25.73826 | 5443 ft | 220 kts | 98° |
| 2026-05-04 20:54 | 44.57539 | 25.75915 | 4977 ft | 220 kts | 99° |
| 2026-05-04 20:55 | 44.57196 | 25.78002 | 4497 ft | 220 kts | 99° |
| 2026-05-04 20:55 | 44.56854 | 25.80090 | 4011 ft | 220 kts | 100° |
| 2026-05-04 20:55 | 44.56513 | 25.82151 | 3558 ft | 219 kts | 101° |
| 2026-05-04 20:55 | 44.56175 | 25.84182 | 3260 ft | 211 kts | 101° |
| 2026-05-04 20:56 | 44.55852 | 25.86126 | 3111 ft | 197 kts | 101° |
| 2026-05-04 20:56 | 44.55548 | 25.87954 | 2923 ft | 189 kts | 101° |
| 2026-05-04 20:56 | 44.55254 | 25.89746 | 2641 ft | 188 kts | 100° |
| 2026-05-04 20:56 | 44.55222 | 25.91550 | 2391 ft | 186 kts | 82° |
| 2026-05-04 20:57 | 44.55361 | 25.93353 | 2152 ft | 186 kts | 82° |
| 2026-05-04 20:57 | 44.55502 | 25.95160 | 1937 ft | 188 kts | 82° |
| 2026-05-04 20:57 | 44.55639 | 25.96928 | 1712 ft | 175 kts | 82° |
| 2026-05-04 20:57 | 44.55765 | 25.98556 | 1505 ft | 161 kts | 83° |
| 2026-05-04 20:58 | 44.55882 | 26.00082 | 1318 ft | 154 kts | 83° |
| 2026-05-04 20:58 | 44.55996 | 26.01561 | 1132 ft | 151 kts | 83° |
| 2026-05-04 20:58 | 44.56109 | 26.03018 | 954 ft | 150 kts | 83° |
| 2026-05-04 20:58 | 44.56216 | 26.04459 | 775 ft | 148 kts | 84° |
| 2026-05-04 20:59 | 44.56309 | 26.05888 | 599 ft | 146 kts | 84° |
| 2026-05-04 20:59 | 44.56424 | 26.07303 | 433 ft | 146 kts | 84° |
| 2026-05-04 20:59 | 44.56537 | 26.08688 | 322 ft | 130 kts | 82° |
| 2026-05-04 20:59 | 44.56601 | 26.09529 | 323 ft | 51 kts | 84° |
| 2026-05-04 21:00 | 44.56643 | 26.10018 | 323 ft | 51 kts | 83° |
| 2026-05-04 21:00 | 44.56676 | 26.10514 | 322 ft | 49 kts | 84° |
| 2026-05-04 21:00 | 44.56746 | 26.10763 | 322 ft | 18 kts | 9° |
| 2026-05-04 21:00 | 44.56874 | 26.10748 | 321 ft | 21 kts | 355° |
| 2026-05-04 21:01 | 44.56973 | 26.10725 | 322 ft | 11 kts | 337° |
| 2026-05-04 21:01 | 44.57034 | 26.10632 | 322 ft | 16 kts | 303° |
| 2026-05-04 21:01 | 44.57066 | 26.10486 | 322 ft | 15 kts | 265° |
| 2026-05-04 21:01 | 44.57054 | 26.10335 | 322 ft | 17 kts | 265° |
| 2026-05-04 21:02 | 44.57041 | 26.10157 | 322 ft | 20 kts | 263° |
| 2026-05-04 21:02 | 44.57024 | 26.09971 | 322 ft | 19 kts | 264° |
| 2026-05-04 21:02 | 44.57010 | 26.09774 | 322 ft | 19 kts | 263° |
| 2026-05-04 21:02 | 44.56994 | 26.09574 | 322 ft | 22 kts | 263° |
| 2026-05-04 21:03 | 44.56977 | 26.09350 | 321 ft | 24 kts | 264° |
| 2026-05-04 21:03 | 44.56958 | 26.09104 | 322 ft | 26 kts | 264° |
| 2026-05-04 21:03 | 44.56939 | 26.08847 | 322 ft | 23 kts | 264° |
| 2026-05-04 21:03 | 44.56926 | 26.08672 | 322 ft | 16 kts | 264° |
| 2026-05-04 21:04 | 44.56954 | 26.08545 | 322 ft | 15 kts | 347° |
| 2026-05-04 21:04 | 44.57066 | 26.08530 | 322 ft | 18 kts | 354° |
| 2026-05-04 21:04 | 44.57199 | 26.08510 | 323 ft | 18 kts | 353° |
| 2026-05-04 21:04 | 44.57225 | 26.08385 | 323 ft | 16 kts | 264° |
| 2026-05-04 21:05 | 44.57214 | 26.08218 | 323 ft | 18 kts | 263° |
| 2026-05-04 21:05 | 44.57202 | 26.08057 | 322 ft | 7 kts | 263° |
| 2026-05-04 21:05 | 44.57211 | 26.07998 | 322 ft | 6 kts | 333° |
| 2026-05-04 21:05 | 44.57242 | 26.07990 | 322 ft | 2 kts | 353° |
| 2026-05-04 21:06 | 44.57258 | 26.07987 | 322 ft | 2 kts | 353° |
| 2026-05-04 21:06 | 44.57260 | 26.07987 | 322 ft | 0 kts | 353° |